createdAt,value
2018-05-06T00:00:03.010Z,0
2018-05-06T00:05:03.457Z,0
2018-05-06T00:10:02.987Z,0
2018-05-06T00:15:03.555Z,0
2018-05-06T00:20:03.124Z,0
2018-05-06T00:25:02.664Z,0
2018-05-06T00:30:03.212Z,0
2018-05-06T00:35:02.770Z,0
2018-05-06T00:40:03.369Z,0
2018-05-06T00:45:03.009Z,0
2018-05-06T00:50:02.784Z,0
2018-05-06T00:55:03.419Z,0
2018-05-06T01:00:03.008Z,0
2018-05-06T01:05:02.671Z,0
2018-05-06T01:10:03.328Z,0
2018-05-06T01:15:02.936Z,0
2018-05-06T01:20:03.552Z,0
2018-05-06T01:25:03.096Z,0
2018-05-06T01:30:03.754Z,0
2018-05-06T01:35:03.237Z,0
2018-05-06T01:40:02.767Z,0
2018-05-06T01:45:03.270Z,0
2018-05-06T01:50:02.840Z,0
2018-05-06T01:55:03.381Z,0
2018-05-06T02:00:02.999Z,0
2018-05-06T02:05:02.660Z,0
2018-05-06T02:10:03.549Z,0
2018-05-06T02:15:02.982Z,0
2018-05-06T02:20:03.511Z,0
2018-05-06T02:25:03.011Z,0
2018-05-06T02:30:03.594Z,0
2018-05-06T02:35:03.124Z,0
2018-05-06T02:40:02.784Z,0
2018-05-06T02:45:03.551Z,0
2018-05-06T02:50:03.143Z,0
2018-05-06T02:55:02.636Z,0
2018-05-06T03:00:03.088Z,0
2018-05-06T03:05:02.608Z,0
2018-05-06T03:10:03.240Z,0
2018-05-06T03:15:02.810Z,0
2018-05-06T03:20:03.389Z,0
2018-05-06T03:25:02.922Z,0
2018-05-06T03:30:03.458Z,0
2018-05-06T03:35:02.965Z,0
2018-05-06T03:40:03.548Z,0
2018-05-06T03:45:03.065Z,0
2018-05-06T03:50:02.653Z,0
2018-05-06T03:55:03.239Z,0
2018-05-06T04:00:02.736Z,0
2018-05-06T04:05:03.348Z,0
2018-05-06T04:10:02.874Z,0
2018-05-06T04:15:03.452Z,0
2018-05-06T04:20:02.959Z,0
2018-05-06T04:25:03.508Z,0
2018-05-06T04:30:02.875Z,0
2018-05-06T04:35:03.600Z,0
2018-05-06T04:40:03.209Z,0
2018-05-06T04:45:02.759Z,0
2018-05-06T04:50:03.439Z,0
2018-05-06T04:55:02.999Z,0
2018-05-06T05:00:03.615Z,0
2018-05-06T05:05:03.250Z,0
2018-05-06T05:15:03.404Z,0
2018-05-06T05:20:02.980Z,0
2018-05-06T05:25:03.496Z,0
2018-05-06T05:30:02.991Z,0
2018-05-06T05:35:03.520Z,0
2018-05-06T05:40:03.182Z,0
2018-05-06T05:45:02.712Z,0
2018-05-06T05:50:03.307Z,0
2018-05-06T05:55:02.802Z,0
2018-05-06T06:00:03.386Z,0
2018-05-06T06:05:02.914Z,0
2018-05-06T06:10:03.536Z,1
2018-05-06T06:15:03.113Z,0
2018-05-06T06:20:02.669Z,1
2018-05-06T06:25:03.141Z,0
2018-05-06T06:30:02.826Z,0
2018-05-06T06:35:03.512Z,3
2018-05-06T06:40:03.079Z,0
2018-05-06T06:45:03.597Z,0
2018-05-06T06:50:03.105Z,0
2018-05-06T06:55:02.668Z,2
2018-05-06T07:00:03.239Z,0
2018-05-06T07:05:02.758Z,1
2018-05-06T07:10:03.495Z,2
2018-05-06T07:15:03.135Z,2
2018-05-06T07:20:02.701Z,3
2018-05-06T07:25:03.266Z,2
2018-05-06T07:30:02.824Z,4
2018-05-06T07:35:03.357Z,4
2018-05-06T07:40:02.914Z,2
2018-05-06T07:45:03.442Z,0
2018-05-06T07:50:03.006Z,0
2018-05-06T07:55:03.511Z,3
2018-05-06T08:00:03.013Z,1
2018-05-06T08:05:03.483Z,0
2018-05-06T08:10:03.026Z,0
2018-05-06T08:15:03.591Z,0
2018-05-06T08:20:03.138Z,0
2018-05-06T08:25:02.789Z,0
2018-05-06T08:30:03.287Z,0
2018-05-06T08:35:02.806Z,0
2018-05-06T08:40:03.379Z,0
2018-05-06T08:45:02.850Z,0
2018-05-06T08:50:03.374Z,0
2018-05-06T08:55:02.911Z,0
2018-05-06T09:00:03.458Z,2
2018-05-06T09:05:02.900Z,0
2018-05-06T09:10:03.508Z,0
2018-05-06T09:15:03.171Z,0
2018-05-06T09:20:02.835Z,0
2018-05-06T09:25:03.404Z,0
2018-05-06T09:30:02.891Z,0
2018-05-06T09:35:03.464Z,0
2018-05-06T09:40:03.096Z,1
2018-05-06T09:45:02.649Z,0
2018-05-06T09:50:03.129Z,0
2018-05-06T09:55:02.674Z,1
2018-05-06T10:00:03.170Z,0
2018-05-06T10:05:02.799Z,2
2018-05-06T10:10:03.420Z,0
2018-05-06T10:15:02.938Z,0
2018-05-06T10:20:03.704Z,1
2018-05-06T10:25:03.348Z,0
2018-05-06T10:30:02.877Z,0
2018-05-06T10:35:03.404Z,0
2018-05-06T10:40:03.009Z,1
2018-05-06T10:45:03.561Z,0
2018-05-06T10:50:03.657Z,2
2018-05-06T10:55:03.303Z,0
2018-05-06T11:00:02.822Z,2
2018-05-06T11:05:03.362Z,0
2018-05-06T11:10:02.983Z,0
2018-05-06T11:15:03.454Z,2
2018-05-06T11:20:02.922Z,2
2018-05-06T11:25:03.439Z,0
2018-05-06T11:30:02.983Z,0
2018-05-06T11:35:03.544Z,4
2018-05-06T11:40:03.188Z,3
2018-05-06T11:45:02.708Z,0
2018-05-06T11:50:03.220Z,2
2018-05-06T11:55:02.805Z,2
2018-05-06T12:00:03.360Z,1
2018-05-06T12:05:02.899Z,0
2018-05-06T12:10:03.708Z,0
2018-05-06T12:15:03.442Z,0
2018-05-06T12:20:02.995Z,3
2018-05-06T12:25:03.555Z,0
2018-05-06T12:30:02.992Z,0
2018-05-06T12:35:03.574Z,0
2018-05-06T12:40:03.184Z,0
2018-05-06T12:45:02.793Z,0
2018-05-06T12:50:03.316Z,0
2018-05-06T12:55:02.797Z,0
2018-05-06T13:00:03.252Z,2
2018-05-06T13:05:02.794Z,0
2018-05-06T13:10:03.466Z,3
2018-05-06T13:15:03.034Z,2
2018-05-06T13:20:03.594Z,6
2018-05-06T13:25:03.183Z,0
2018-05-06T13:30:02.850Z,0
2018-05-06T13:35:03.532Z,5
2018-05-06T13:40:03.130Z,0
2018-05-06T13:45:02.648Z,5
2018-05-06T13:50:03.495Z,4
2018-05-06T13:55:03.138Z,1
2018-05-06T14:00:02.728Z,5
2018-05-06T14:05:03.296Z,1
2018-05-06T14:10:02.832Z,5
2018-05-06T14:15:03.352Z,2
2018-05-06T14:20:02.895Z,2
2018-05-06T14:25:03.442Z,3
2018-05-06T14:30:03.322Z,2
2018-05-06T14:35:03.131Z,7
2018-05-06T14:40:02.783Z,5
2018-05-06T14:45:03.343Z,3
2018-05-06T14:50:02.867Z,4
2018-05-06T14:55:03.418Z,3
2018-05-06T15:00:02.868Z,3
2018-05-06T15:05:03.487Z,3
2018-05-06T15:10:03.097Z,5
2018-05-06T15:15:02.656Z,3
2018-05-06T15:20:03.181Z,5
2018-05-06T15:25:02.942Z,3
2018-05-06T15:30:03.493Z,5
2018-05-06T15:35:03.049Z,3
2018-05-06T15:40:02.658Z,5
2018-05-06T15:45:03.238Z,5
2018-05-06T15:50:02.737Z,2
2018-05-06T15:55:03.265Z,4
2018-05-06T16:00:03.115Z,2
2018-05-06T16:05:02.767Z,5
2018-05-06T16:10:03.392Z,8
2018-05-06T16:15:02.903Z,5
2018-05-06T16:20:03.772Z,3
2018-05-06T16:25:03.314Z,5
2018-05-06T16:30:02.877Z,4
2018-05-06T16:35:03.590Z,6
2018-05-06T16:40:03.136Z,7
2018-05-06T16:45:02.771Z,6
2018-05-06T16:50:03.246Z,5
2018-05-06T16:55:02.717Z,4
2018-05-06T17:00:03.374Z,4
2018-05-06T17:05:02.898Z,7
2018-05-06T17:10:02.683Z,4
2018-05-06T17:15:03.206Z,7
2018-05-06T17:20:02.762Z,5
2018-05-06T17:25:03.377Z,5
2018-05-06T17:30:02.887Z,4
2018-05-06T17:35:03.476Z,3
2018-05-06T17:40:03.100Z,3
2018-05-06T17:45:03.606Z,3
2018-05-06T17:50:03.319Z,3
2018-05-06T17:55:02.882Z,6
2018-05-06T18:00:03.431Z,5
2018-05-06T18:05:03.012Z,3
2018-05-06T18:10:03.599Z,3
2018-05-06T18:15:03.296Z,2
2018-05-06T18:20:02.935Z,4
2018-05-06T18:25:03.487Z,2
2018-05-06T18:30:03.027Z,3
2018-05-06T18:35:03.732Z,3
2018-05-06T18:40:03.346Z,2
2018-05-06T18:45:02.948Z,2
2018-05-06T18:50:03.509Z,2
2018-05-06T18:55:03.004Z,2
2018-05-06T19:00:03.551Z,0
2018-05-06T19:05:03.081Z,0
2018-05-06T19:10:02.667Z,0
2018-05-06T19:15:03.131Z,0
2018-05-06T19:20:02.699Z,0
2018-05-06T19:25:03.207Z,0
2018-05-06T19:30:02.764Z,0
2018-05-06T19:35:03.371Z,0
2018-05-06T19:40:02.981Z,0
2018-05-06T19:45:03.561Z,0
2018-05-06T19:50:03.167Z,0
2018-05-06T19:55:02.760Z,0
2018-05-06T20:00:03.386Z,0
2018-05-06T20:05:03.003Z,0
2018-05-06T20:10:02.667Z,0
2018-05-06T20:15:03.302Z,0
2018-05-06T20:20:02.882Z,0
2018-05-06T20:25:03.456Z,0
2018-05-06T20:30:03.013Z,2
2018-05-06T20:35:02.636Z,1
2018-05-06T20:40:03.318Z,0
2018-05-06T20:45:02.958Z,0
2018-05-06T20:50:03.536Z,1
2018-05-06T20:55:03.066Z,0
2018-05-06T21:00:02.644Z,0
2018-05-06T21:05:03.274Z,0
2018-05-06T21:10:02.859Z,4
2018-05-06T21:15:03.386Z,2
2018-05-06T21:20:02.891Z,2
2018-05-06T21:25:03.456Z,2
2018-05-06T21:30:02.984Z,0
2018-05-06T21:35:03.553Z,0
2018-05-06T21:40:03.187Z,0
2018-05-06T21:45:03.385Z,2
2018-05-06T21:50:02.915Z,0
2018-05-06T21:55:03.533Z,1
2018-05-06T22:00:03.126Z,1
2018-05-06T22:05:02.720Z,0
2018-05-06T22:10:03.366Z,0
2018-05-06T22:15:02.839Z,0
2018-05-06T22:20:03.333Z,0
2018-05-06T22:25:02.865Z,0
2018-05-06T22:35:03.324Z,0
2018-05-06T22:40:02.921Z,0
2018-05-06T22:45:03.497Z,0
2018-05-06T22:50:03.077Z,0
2018-05-06T22:55:03.688Z,0
2018-05-06T23:00:03.257Z,0
2018-05-06T23:05:03.072Z,0
2018-05-06T23:10:02.755Z,0
2018-05-06T23:15:03.324Z,0
2018-05-06T23:20:02.853Z,0
2018-05-06T23:25:03.402Z,0
2018-05-06T23:30:03.017Z,0
2018-05-06T23:35:02.628Z,0
2018-05-06T23:40:03.255Z,0
2018-05-06T23:45:02.837Z,0
2018-05-06T23:50:03.353Z,0
2018-05-06T23:55:02.794Z,0
